KAL280 RKSI-RJBB
Flight info
| Callsign | KAL280 |
|---|---|
| Flight time | 1h 8m |
| Altitude | 31000 |
| Route | EGOBA DCT LANAT Y597 MIHOU DCT SAEKI Y36 ATMUG |
| Aircraft | A32N/M-V/N |
Departure
| Time | 2026-05-06 11:44 |
|---|---|
| Airport | Incheon International Airport (RKSI) |
Arrival
| Time | 2026-05-06 12:52 |
|---|---|
| Airport | Kansai International Airport (RJBB) |
| Time | Latitude | Longitude | Altitude | Speed | Heading |
|---|---|---|---|---|---|
| 2026-05-06 11:28 | 37.46325 | 126.43216 | 31 ft | 0 kts | 69° |
| 2026-05-06 11:36 | 37.46324 | 126.43212 | 31 ft | 2 kts | 69° |
| 2026-05-06 11:36 | 37.46317 | 126.43190 | 30 ft | 3 kts | 69° |
| 2026-05-06 11:36 | 37.46310 | 126.43167 | 31 ft | 3 kts | 69° |
| 2026-05-06 11:36 | 37.46303 | 126.43143 | 32 ft | 3 kts | 69° |
| 2026-05-06 11:37 | 37.46297 | 126.43123 | 32 ft | 3 kts | 65° |
| 2026-05-06 11:37 | 37.46287 | 126.43103 | 32 ft | 3 kts | 29° |
| 2026-05-06 11:37 | 37.46269 | 126.43097 | 32 ft | 3 kts | 351° |
| 2026-05-06 11:37 | 37.46252 | 126.43102 | 32 ft | 2 kts | 336° |
| 2026-05-06 11:38 | 37.46246 | 126.43105 | 32 ft | 0 kts | 336° |
| 2026-05-06 11:39 | 37.46250 | 126.43103 | 32 ft | 3 kts | 335° |
| 2026-05-06 11:40 | 37.46303 | 126.43071 | 32 ft | 13 kts | 334° |
| 2026-05-06 11:40 | 37.46347 | 126.42986 | 31 ft | 13 kts | 269° |
| 2026-05-06 11:40 | 37.46304 | 126.42909 | 32 ft | 11 kts | 245° |
| 2026-05-06 11:40 | 37.46317 | 126.42833 | 32 ft | 10 kts | 317° |
| 2026-05-06 11:41 | 37.46423 | 126.42731 | 32 ft | 27 kts | 321° |
| 2026-05-06 11:41 | 37.46595 | 126.42581 | 30 ft | 33 kts | 326° |
| 2026-05-06 11:41 | 37.46792 | 126.42404 | 32 ft | 36 kts | 324° |
| 2026-05-06 11:41 | 37.47001 | 126.42214 | 31 ft | 38 kts | 323° |
| 2026-05-06 11:42 | 37.47224 | 126.42021 | 32 ft | 40 kts | 324° |
| 2026-05-06 11:42 | 37.47410 | 126.41844 | 32 ft | 4 kts | 290° |
| 2026-05-06 11:42 | 37.47390 | 126.41792 | 31 ft | 14 kts | 241° |
| 2026-05-06 11:42 | 37.47322 | 126.41664 | 32 ft | 20 kts | 236° |
| 2026-05-06 11:43 | 37.47251 | 126.41583 | 33 ft | 9 kts | 160° |
| 2026-05-06 11:43 | 37.47232 | 126.41599 | 33 ft | 4 kts | 140° |
| 2026-05-06 11:43 | 37.46926 | 126.41870 | 32 ft | 104 kts | 144° |
| 2026-05-06 11:44 | 37.45160 | 126.43523 | 1048 ft | 175 kts | 151° |
| 2026-05-06 11:44 | 37.44147 | 126.44337 | 1950 ft | 175 kts | 157° |
| 2026-05-06 11:44 | 37.43028 | 126.45144 | 2595 ft | 199 kts | 157° |
| 2026-05-06 11:44 | 37.41742 | 126.46061 | 3286 ft | 224 kts | 155° |
| 2026-05-06 11:45 | 37.40309 | 126.47103 | 3875 ft | 252 kts | 154° |
| 2026-05-06 11:45 | 37.38749 | 126.48193 | 4544 ft | 265 kts | 159° |
| 2026-05-06 11:45 | 37.37013 | 126.48974 | 5334 ft | 266 kts | 168° |
| 2026-05-06 11:45 | 37.35209 | 126.49574 | 6211 ft | 270 kts | 168° |
| 2026-05-06 11:46 | 37.33380 | 126.50192 | 7061 ft | 274 kts | 168° |
| 2026-05-06 11:46 | 37.31586 | 126.50801 | 7888 ft | 279 kts | 168° |
| 2026-05-06 11:46 | 37.29749 | 126.51658 | 8764 ft | 287 kts | 151° |
| 2026-05-06 11:46 | 37.28292 | 126.53407 | 9670 ft | 299 kts | 126° |
| 2026-05-06 11:47 | 37.27512 | 126.55880 | 10536 ft | 314 kts | 102° |
| 2026-05-06 11:47 | 37.27239 | 126.58649 | 11365 ft | 331 kts | 96° |
| 2026-05-06 11:47 | 37.27082 | 126.61594 | 12235 ft | 345 kts | 94° |
| 2026-05-06 11:47 | 37.27136 | 126.64626 | 13121 ft | 358 kts | 85° |
| 2026-05-06 11:48 | 37.27374 | 126.67825 | 14019 ft | 369 kts | 86° |
| 2026-05-06 11:48 | 37.27581 | 126.71078 | 14856 ft | 378 kts | 86° |
| 2026-05-06 11:48 | 37.27768 | 126.74370 | 15685 ft | 386 kts | 86° |
| 2026-05-06 11:48 | 37.27950 | 126.77773 | 16550 ft | 393 kts | 86° |
| 2026-05-06 11:49 | 37.28073 | 126.80100 | 17150 ft | 397 kts | 86° |
| 2026-05-06 11:49 | 37.28316 | 126.84743 | 18262 ft | 408 kts | 86° |
| 2026-05-06 11:49 | 37.28506 | 126.88376 | 18596 ft | 427 kts | 86° |
| 2026-05-06 11:49 | 37.28650 | 126.90885 | 18742 ft | 441 kts | 84° |
| 2026-05-06 11:50 | 37.29110 | 126.96136 | 19305 ft | 457 kts | 82° |
| 2026-05-06 11:50 | 37.29369 | 126.98774 | 19774 ft | 460 kts | 82° |
| 2026-05-06 11:50 | 37.29760 | 127.02787 | 20452 ft | 465 kts | 82° |
| 2026-05-06 11:50 | 37.30143 | 127.06849 | 21107 ft | 470 kts | 82° |
| 2026-05-06 11:51 | 37.30568 | 127.10936 | 21760 ft | 475 kts | 78° |
| 2026-05-06 11:51 | 37.31346 | 127.14988 | 22396 ft | 478 kts | 71° |
| 2026-05-06 11:51 | 37.32403 | 127.18963 | 23027 ft | 482 kts | 68° |
| 2026-05-06 11:51 | 37.33833 | 127.22777 | 23619 ft | 483 kts | 56° |
| 2026-05-06 11:52 | 37.35838 | 127.26138 | 24209 ft | 479 kts | 43° |
| 2026-05-06 11:52 | 37.38314 | 127.28911 | 24780 ft | 476 kts | 32° |
| 2026-05-06 11:52 | 37.40908 | 127.31537 | 25249 ft | 484 kts | 39° |
| 2026-05-06 11:52 | 37.43127 | 127.34772 | 25769 ft | 494 kts | 51° |
| 2026-05-06 11:53 | 37.44819 | 127.38499 | 26242 ft | 503 kts | 62° |
| 2026-05-06 11:53 | 37.45951 | 127.42695 | 26709 ft | 511 kts | 74° |
| 2026-05-06 11:53 | 37.46449 | 127.47172 | 27097 ft | 520 kts | 85° |
| 2026-05-06 11:53 | 37.46262 | 127.51737 | 27552 ft | 524 kts | 97° |
| 2026-05-06 11:54 | 37.45411 | 127.56224 | 27878 ft | 530 kts | 108° |
| 2026-05-06 11:54 | 37.43984 | 127.60512 | 28113 ft | 534 kts | 115° |
| 2026-05-06 11:54 | 37.42425 | 127.64767 | 28387 ft | 536 kts | 113° |
| 2026-05-06 11:54 | 37.40985 | 127.69095 | 28604 ft | 537 kts | 110° |
| 2026-05-06 11:55 | 37.39682 | 127.73498 | 28887 ft | 536 kts | 108° |
| 2026-05-06 11:55 | 37.38473 | 127.77930 | 29179 ft | 537 kts | 107° |
| 2026-05-06 11:55 | 37.37306 | 127.82386 | 29464 ft | 536 kts | 107° |
| 2026-05-06 11:55 | 37.36153 | 127.86846 | 29760 ft | 536 kts | 107° |
| 2026-05-06 11:56 | 37.34999 | 127.91314 | 30064 ft | 536 kts | 107° |
| 2026-05-06 11:56 | 37.33859 | 127.95718 | 30338 ft | 536 kts | 106° |
| 2026-05-06 11:56 | 37.32705 | 128.00152 | 30723 ft | 533 kts | 106° |
| 2026-05-06 11:56 | 37.31552 | 128.04577 | 30863 ft | 531 kts | 106° |
| 2026-05-06 11:57 | 37.29247 | 128.13398 | 30856 ft | 531 kts | 106° |
| 2026-05-06 11:57 | 37.26932 | 128.22219 | 30858 ft | 529 kts | 106° |
| 2026-05-06 11:58 | 37.24634 | 128.30947 | 30866 ft | 530 kts | 106° |
| 2026-05-06 11:58 | 37.22318 | 128.39713 | 30861 ft | 528 kts | 106° |
| 2026-05-06 11:59 | 37.20041 | 128.48301 | 30861 ft | 530 kts | 106° |
| 2026-05-06 11:59 | 37.17718 | 128.57048 | 30863 ft | 528 kts | 106° |
| 2026-05-06 12:00 | 37.15381 | 128.65808 | 30864 ft | 529 kts | 106° |
| 2026-05-06 12:00 | 37.13055 | 128.74488 | 30858 ft | 527 kts | 106° |
| 2026-05-06 12:01 | 37.10714 | 128.83204 | 30857 ft | 527 kts | 107° |
| 2026-05-06 12:01 | 37.08382 | 128.91853 | 30863 ft | 525 kts | 107° |
| 2026-05-06 12:02 | 37.06037 | 129.00520 | 30857 ft | 526 kts | 106° |
| 2026-05-06 12:02 | 37.03687 | 129.09188 | 30853 ft | 526 kts | 107° |
| 2026-05-06 12:03 | 37.01329 | 129.17844 | 30853 ft | 525 kts | 107° |
| 2026-05-06 12:03 | 36.98961 | 129.26514 | 30854 ft | 526 kts | 107° |
| 2026-05-06 12:04 | 36.96590 | 129.35163 | 30855 ft | 525 kts | 107° |
| 2026-05-06 12:04 | 36.94215 | 129.43796 | 30847 ft | 524 kts | 107° |
| 2026-05-06 12:05 | 36.91844 | 129.52394 | 30846 ft | 524 kts | 107° |
| 2026-05-06 12:05 | 36.89468 | 129.60979 | 30849 ft | 522 kts | 107° |
| 2026-05-06 12:06 | 36.87102 | 129.69500 | 30852 ft | 523 kts | 107° |
| 2026-05-06 12:06 | 36.84713 | 129.78076 | 30860 ft | 523 kts | 107° |
| 2026-05-06 12:07 | 36.82319 | 129.86645 | 30862 ft | 521 kts | 107° |
| 2026-05-06 12:07 | 36.79924 | 129.95189 | 30872 ft | 521 kts | 107° |
| 2026-05-06 12:08 | 36.77520 | 130.03735 | 30874 ft | 521 kts | 107° |
| 2026-05-06 12:08 | 36.75119 | 130.12245 | 30875 ft | 520 kts | 107° |
| 2026-05-06 12:09 | 36.72711 | 130.20755 | 30876 ft | 520 kts | 107° |
| 2026-05-06 12:09 | 36.70301 | 130.29242 | 30883 ft | 518 kts | 107° |
| 2026-05-06 12:10 | 36.67892 | 130.37702 | 30883 ft | 518 kts | 107° |
| 2026-05-06 12:10 | 36.65473 | 130.46169 | 30885 ft | 519 kts | 107° |
| 2026-05-06 12:11 | 36.63074 | 130.54539 | 30894 ft | 517 kts | 107° |
| 2026-05-06 12:11 | 36.60656 | 130.62950 | 30892 ft | 517 kts | 107° |
| 2026-05-06 12:12 | 36.58226 | 130.71378 | 30898 ft | 517 kts | 107° |
| 2026-05-06 12:12 | 36.55790 | 130.79801 | 30902 ft | 517 kts | 108° |
| 2026-05-06 12:13 | 36.53345 | 130.88228 | 30901 ft | 517 kts | 108° |
| 2026-05-06 12:13 | 36.50898 | 130.96641 | 30901 ft | 517 kts | 108° |
| 2026-05-06 12:14 | 36.48445 | 131.05044 | 30903 ft | 517 kts | 108° |
| 2026-05-06 12:14 | 36.45988 | 131.13436 | 30906 ft | 517 kts | 108° |
| 2026-05-06 12:15 | 36.43542 | 131.21763 | 30906 ft | 515 kts | 108° |
| 2026-05-06 12:15 | 36.41079 | 131.30131 | 30912 ft | 515 kts | 108° |
| 2026-05-06 12:16 | 36.38611 | 131.38490 | 30914 ft | 514 kts | 109° |
| 2026-05-06 12:16 | 36.35525 | 131.46505 | 30913 ft | 516 kts | 120° |
| 2026-05-06 12:17 | 36.31740 | 131.54085 | 30921 ft | 517 kts | 121° |
| 2026-05-06 12:17 | 36.27978 | 131.61669 | 30920 ft | 515 kts | 121° |
| 2026-05-06 12:18 | 36.24216 | 131.69235 | 30926 ft | 516 kts | 121° |
| 2026-05-06 12:18 | 36.20468 | 131.76750 | 30924 ft | 516 kts | 121° |
| 2026-05-06 12:19 | 36.16701 | 131.84289 | 30928 ft | 515 kts | 121° |
| 2026-05-06 12:19 | 36.12927 | 131.91821 | 30932 ft | 515 kts | 121° |
| 2026-05-06 12:20 | 36.09150 | 131.99343 | 30938 ft | 514 kts | 122° |
| 2026-05-06 12:20 | 36.05377 | 132.06841 | 30936 ft | 514 kts | 122° |
| 2026-05-06 12:21 | 36.01593 | 132.14338 | 30941 ft | 514 kts | 122° |
| 2026-05-06 12:21 | 35.97831 | 132.21780 | 30946 ft | 513 kts | 122° |
| 2026-05-06 12:22 | 35.94047 | 132.29250 | 30945 ft | 513 kts | 123° |
| 2026-05-06 12:22 | 35.90253 | 132.36722 | 30945 ft | 513 kts | 123° |
| 2026-05-06 12:23 | 35.86484 | 132.44131 | 30946 ft | 513 kts | 124° |
| 2026-05-06 12:23 | 35.82681 | 132.51589 | 30947 ft | 513 kts | 124° |
| 2026-05-06 12:24 | 35.78208 | 132.58361 | 30955 ft | 509 kts | 135° |
| 2026-05-06 12:24 | 35.73422 | 132.64797 | 30979 ft | 508 kts | 136° |
| 2026-05-06 12:25 | 35.68776 | 132.71289 | 30957 ft | 509 kts | 135° |
| 2026-05-06 12:25 | 35.64126 | 132.77888 | 30956 ft | 509 kts | 135° |
| 2026-05-06 12:26 | 35.59490 | 132.84473 | 30956 ft | 509 kts | 135° |
| 2026-05-06 12:26 | 35.54847 | 132.91051 | 30953 ft | 509 kts | 135° |
| 2026-05-06 12:27 | 35.50206 | 132.97612 | 30949 ft | 509 kts | 135° |
| 2026-05-06 12:27 | 35.45586 | 133.04137 | 30951 ft | 509 kts | 137° |
| 2026-05-06 12:28 | 35.40932 | 133.10694 | 30993 ft | 509 kts | 137° |
| 2026-05-06 12:28 | 35.36287 | 133.17233 | 30970 ft | 509 kts | 138° |
| 2026-05-06 12:29 | 35.31644 | 133.23753 | 30968 ft | 508 kts | 140° |
| 2026-05-06 12:29 | 35.27006 | 133.30265 | 31120 ft | 506 kts | 141° |
| 2026-05-06 12:30 | 35.22401 | 133.36699 | 30918 ft | 505 kts | 141° |
| 2026-05-06 12:30 | 35.17751 | 133.43170 | 30901 ft | 506 kts | 141° |
| 2026-05-06 12:31 | 35.13113 | 133.49643 | 31001 ft | 506 kts | 143° |
| 2026-05-06 12:31 | 35.08472 | 133.56084 | 31095 ft | 504 kts | 143° |
| 2026-05-06 12:32 | 35.03879 | 133.62455 | 31011 ft | 501 kts | 142° |
| 2026-05-06 12:32 | 34.99256 | 133.68855 | 30979 ft | 504 kts | 144° |
| 2026-05-06 12:33 | 34.96933 | 133.72064 | 31086 ft | 504 kts | 144° |
| 2026-05-06 12:33 | 34.94615 | 133.75267 | 31105 ft | 500 kts | 144° |
| 2026-05-06 12:33 | 34.92352 | 133.78412 | 30859 ft | 487 kts | 144° |
| 2026-05-06 12:33 | 34.90125 | 133.81490 | 30111 ft | 481 kts | 144° |
| 2026-05-06 12:34 | 34.87883 | 133.84550 | 28769 ft | 485 kts | 143° |
| 2026-05-06 12:34 | 34.85646 | 133.87605 | 27872 ft | 480 kts | 142° |
| 2026-05-06 12:34 | 34.84186 | 133.89606 | 27450 ft | 473 kts | 142° |
| 2026-05-06 12:34 | 34.81389 | 133.93452 | 26841 ft | 456 kts | 142° |
| 2026-05-06 12:35 | 34.79244 | 133.96392 | 26016 ft | 453 kts | 141° |
| 2026-05-06 12:35 | 34.77160 | 133.99237 | 25279 ft | 448 kts | 140° |
| 2026-05-06 12:35 | 34.75101 | 134.02042 | 24553 ft | 445 kts | 139° |
| 2026-05-06 12:35 | 34.73049 | 134.04839 | 23835 ft | 441 kts | 139° |
| 2026-05-06 12:36 | 34.71696 | 134.06684 | 23299 ft | 440 kts | 139° |
| 2026-05-06 12:36 | 34.69475 | 134.09128 | 22597 ft | 420 kts | 153° |
| 2026-05-06 12:36 | 34.66954 | 134.10725 | 21912 ft | 400 kts | 168° |
| 2026-05-06 12:36 | 34.64298 | 134.11423 | 21255 ft | 383 kts | 180° |
| 2026-05-06 12:37 | 34.61667 | 134.11808 | 20605 ft | 379 kts | 179° |
| 2026-05-06 12:37 | 34.59085 | 134.12461 | 19948 ft | 383 kts | 166° |
| 2026-05-06 12:37 | 34.56693 | 134.13986 | 19164 ft | 395 kts | 148° |
| 2026-05-06 12:37 | 34.54724 | 134.16337 | 18427 ft | 403 kts | 131° |
| 2026-05-06 12:38 | 34.53355 | 134.19325 | 17701 ft | 405 kts | 115° |
| 2026-05-06 12:38 | 34.52407 | 134.22484 | 16970 ft | 404 kts | 111° |
| 2026-05-06 12:38 | 34.51537 | 134.25714 | 16234 ft | 401 kts | 110° |
| 2026-05-06 12:38 | 34.50649 | 134.28907 | 15465 ft | 399 kts | 111° |
| 2026-05-06 12:39 | 34.49727 | 134.32052 | 14723 ft | 395 kts | 111° |
| 2026-05-06 12:39 | 34.48779 | 134.35161 | 14014 ft | 391 kts | 112° |
| 2026-05-06 12:39 | 34.47823 | 134.38230 | 13277 ft | 386 kts | 112° |
| 2026-05-06 12:39 | 34.46872 | 134.41258 | 12574 ft | 381 kts | 112° |
| 2026-05-06 12:40 | 34.45931 | 134.44243 | 11874 ft | 376 kts | 112° |
| 2026-05-06 12:40 | 34.45003 | 134.47190 | 11160 ft | 372 kts | 112° |
| 2026-05-06 12:40 | 34.44083 | 134.50104 | 10472 ft | 368 kts | 112° |
| 2026-05-06 12:40 | 34.43178 | 134.52978 | 10075 ft | 357 kts | 112° |
| 2026-05-06 12:41 | 34.42313 | 134.55723 | 9874 ft | 340 kts | 112° |
| 2026-05-06 12:41 | 34.41502 | 134.58298 | 9715 ft | 323 kts | 112° |
| 2026-05-06 12:41 | 34.40720 | 134.60777 | 9554 ft | 308 kts | 112° |
| 2026-05-06 12:41 | 34.39963 | 134.63171 | 9202 ft | 301 kts | 112° |
| 2026-05-06 12:42 | 34.39218 | 134.65524 | 8759 ft | 298 kts | 112° |
| 2026-05-06 12:42 | 34.38480 | 134.67852 | 8326 ft | 295 kts | 112° |
| 2026-05-06 12:42 | 34.37749 | 134.70159 | 7904 ft | 292 kts | 113° |
| 2026-05-06 12:42 | 34.37035 | 134.72425 | 7483 ft | 289 kts | 111° |
| 2026-05-06 12:43 | 34.36446 | 134.74767 | 7055 ft | 286 kts | 108° |
| 2026-05-06 12:43 | 34.35883 | 134.77075 | 6643 ft | 284 kts | 109° |
| 2026-05-06 12:43 | 34.35324 | 134.79349 | 6208 ft | 281 kts | 109° |
| 2026-05-06 12:43 | 34.34766 | 134.81609 | 5793 ft | 278 kts | 109° |
| 2026-05-06 12:44 | 34.34212 | 134.83842 | 5349 ft | 276 kts | 109° |
| 2026-05-06 12:44 | 34.33660 | 134.86062 | 4944 ft | 274 kts | 109° |
| 2026-05-06 12:44 | 34.33112 | 134.88266 | 4516 ft | 272 kts | 109° |
| 2026-05-06 12:44 | 34.32577 | 134.90414 | 4194 ft | 268 kts | 110° |
| 2026-05-06 12:45 | 34.32047 | 134.92544 | 3952 ft | 258 kts | 110° |
| 2026-05-06 12:45 | 34.31544 | 134.94571 | 3847 ft | 244 kts | 110° |
| 2026-05-06 12:45 | 34.30616 | 134.98323 | 3716 ft | 229 kts | 110° |
| 2026-05-06 12:46 | 34.30153 | 135.00162 | 3640 ft | 227 kts | 110° |
| 2026-05-06 12:46 | 34.29693 | 135.01995 | 3561 ft | 228 kts | 107° |
| 2026-05-06 12:46 | 34.29637 | 135.03915 | 3486 ft | 230 kts | 79° |
| 2026-05-06 12:46 | 34.30234 | 135.05653 | 3411 ft | 220 kts | 61° |
| 2026-05-06 12:47 | 34.31092 | 135.07141 | 3274 ft | 212 kts | 54° |
| 2026-05-06 12:47 | 34.31988 | 135.08472 | 3052 ft | 200 kts | 52° |
| 2026-05-06 12:47 | 34.32841 | 135.09735 | 2768 ft | 185 kts | 52° |
| 2026-05-06 12:47 | 34.33605 | 135.10867 | 2531 ft | 161 kts | 52° |
| 2026-05-06 12:48 | 34.34263 | 135.11842 | 2325 ft | 139 kts | 52° |
| 2026-05-06 12:48 | 34.34850 | 135.12713 | 2149 ft | 133 kts | 53° |
| 2026-05-06 12:48 | 34.35427 | 135.13571 | 1975 ft | 129 kts | 52° |
| 2026-05-06 12:48 | 34.35995 | 135.14413 | 1800 ft | 130 kts | 52° |
| 2026-05-06 12:49 | 34.36565 | 135.15258 | 1625 ft | 127 kts | 52° |
| 2026-05-06 12:49 | 34.37121 | 135.16083 | 1450 ft | 129 kts | 52° |
| 2026-05-06 12:49 | 34.37686 | 135.16921 | 1281 ft | 128 kts | 51° |
| 2026-05-06 12:49 | 34.38251 | 135.17761 | 1106 ft | 128 kts | 51° |
| 2026-05-06 12:50 | 34.38816 | 135.18598 | 933 ft | 128 kts | 51° |
| 2026-05-06 12:50 | 34.39377 | 135.19432 | 770 ft | 127 kts | 50° |
| 2026-05-06 12:50 | 34.39935 | 135.20259 | 594 ft | 127 kts | 50° |
| 2026-05-06 12:50 | 34.40497 | 135.21095 | 424 ft | 127 kts | 50° |
| 2026-05-06 12:51 | 34.41044 | 135.21908 | 267 ft | 122 kts | 49° |
| 2026-05-06 12:51 | 34.41570 | 135.22687 | 141 ft | 118 kts | 50° |
| 2026-05-06 12:51 | 34.42075 | 135.23440 | 31 ft | 110 kts | 49° |
| 2026-05-06 12:51 | 34.42483 | 135.24024 | 21 ft | 58 kts | 52° |
| 2026-05-06 12:52 | 34.42650 | 135.24279 | 22 ft | 19 kts | 52° |
| 2026-05-06 12:52 | 34.42763 | 135.24376 | 24 ft | 23 kts | 32° |
| 2026-05-06 12:52 | 34.42914 | 135.24462 | 23 ft | 25 kts | 18° |
| 2026-05-06 12:52 | 34.43080 | 135.24488 | 22 ft | 19 kts | 326° |
| 2026-05-06 12:53 | 34.43186 | 135.24426 | 22 ft | 18 kts | 356° |
| 2026-05-06 12:53 | 34.43255 | 135.24381 | 23 ft | 10 kts | 322° |
| 2026-05-06 12:53 | 34.43269 | 135.24368 | 21 ft | 0 kts | 322° |